Time;durP1;ratioP1;P1;durP2;ratioP2;P2;SDS_P1;SDS_P2;PMS_P1;PMS_P2;Temp;Humidity;BMP_temperature;BMP_pressure;BME280_temperature;BME280_humidity;BME280_pressure;Samples;Min_cycle;Max_cycle;Signal;HPM_P1;HPM_P2
2021/01/05 00:02:18;;;;;;;36.03;18.10;;;;;;;0.40;88.38;97435.13;4941079;28;45449;-74
2021/01/05 00:04:45;;;;;;;27.35;16.38;;;;;;;0.38;87.93;97434.41;4941372;28;45279;-74
2021/01/05 00:07:11;;;;;;;25.05;14.32;;;;;;;0.39;87.89;97436.94;4940528;28;45281;-75
2021/01/05 00:09:36;;;;;;;32.40;18.33;;;;;;;0.40;87.60;97440.38;4941533;28;45224;-74
2021/01/05 00:12:08;;;;;;;35.75;19.15;;;;;;;0.35;88.46;97432.88;4939757;28;45548;-75
2021/01/05 00:14:34;;;;;;;32.50;17.40;;;;;;;0.38;87.67;97445.72;4941195;28;45601;-75
2021/01/05 00:17:00;;;;;;;29.45;16.98;;;;;;;0.34;88.11;97446.88;4941157;28;45517;-74
2021/01/05 00:19:26;;;;;;;31.60;16.90;;;;;;;0.35;87.97;97458.19;4941124;28;45217;-74
2021/01/05 00:21:52;;;;;;;30.27;16.42;;;;;;;0.35;88.89;97451.19;4923439;28;45580;-75
2021/01/05 00:24:18;;;;;;;27.88;16.60;;;;;;;0.38;88.53;97448.34;4941031;28;46223;-75
2021/01/05 00:26:44;;;;;;;29.38;16.60;;;;;;;0.46;87.94;97450.41;4940915;28;45352;-74
2021/01/05 00:29:10;;;;;;;30.63;16.58;;;;;;;0.53;87.67;97451.63;4941001;28;45486;-75
2021/01/05 00:31:36;;;;;;;30.25;16.00;;;;;;;0.55;87.47;97449.72;4940929;28;45463;-74
2021/01/05 00:34:02;;;;;;;27.23;14.98;;;;;;;0.53;87.58;97448.16;4940848;28;46017;-75
2021/01/05 00:36:28;;;;;;;29.65;15.95;;;;;;;0.48;87.90;97447.66;4940474;28;45404;-75
2021/01/05 00:38:54;;;;;;;28.27;15.77;;;;;;;0.50;87.39;97453.63;4941035;28;45543;-74
2021/01/05 00:41:19;;;;;;;24.77;14.20;;;;;;;0.42;88.05;97449.78;4940729;28;45575;-74
2021/01/05 00:43:49;;;;;;;28.75;14.73;;;;;;;0.38;87.78;97464.03;4940688;28;45758;-74
2021/01/05 00:46:18;;;;;;;27.70;14.73;;;;;;;0.40;87.92;97456.06;4940592;28;45373;-75
2021/01/05 00:48:44;;;;;;;28.10;15.05;;;;;;;0.31;88.20;97460.19;4940369;28;45384;-75
2021/01/05 00:51:12;;;;;;;30.90;16.17;;;;;;;0.30;88.50;97463.75;4945708;28;45612;-74
2021/01/05 00:53:37;;;;;;;30.27;16.40;;;;;;;0.31;88.71;97469.81;4943973;28;46171;-74
2021/01/05 00:56:03;;;;;;;29.65;16.00;;;;;;;0.32;88.19;97471.47;4940479;28;45225;-74
2021/01/05 00:58:29;;;;;;;28.63;14.82;;;;;;;0.31;88.49;97464.56;4924212;28;45453;-74
2021/01/05 01:00:54;;;;;;;29.35;16.55;;;;;;;0.39;88.34;97464.84;4938869;28;45473;-75
2021/01/05 01:03:21;;;;;;;32.33;17.48;;;;;;;0.38;88.24;97476.25;4940455;28;46033;-75
2021/01/05 01:05:48;;;;;;;33.17;17.23;;;;;;;0.35;88.29;97476.50;4938827;28;45455;-74
2021/01/05 01:08:14;;;;;;;34.95;19.27;;;;;;;0.39;88.90;97480.56;4940341;28;45328;-74
2021/01/05 01:10:40;;;;;;;36.08;19.30;;;;;;;0.40;88.46;97471.75;4940426;28;45248;-74
2021/01/05 01:13:07;;;;;;;36.45;20.80;;;;;;;0.36;88.54;97470.31;4940052;28;45505;-74
2021/01/05 01:15:32;;;;;;;39.20;21.30;;;;;;;0.37;89.07;97480.69;4940191;28;45255;-74
2021/01/05 01:17:58;;;;;;;38.00;20.58;;;;;;;0.46;89.29;97476.56;4939415;28;45757;-74
2021/01/05 01:20:23;;;;;;;39.00;21.08;;;;;;;0.43;88.70;97476.75;4937112;28;45695;-74
2021/01/05 01:22:49;;;;;;;47.17;23.20;;;;;;;0.49;88.77;97476.34;4939905;28;45288;-75
2021/01/05 01:25:15;;;;;;;44.13;22.30;;;;;;;0.57;88.24;97481.84;4940057;28;45434;-74
2021/01/05 01:27:41;;;;;;;41.30;21.35;;;;;;;0.61;88.35;97482.44;4939944;28;45495;-74
2021/01/05 01:30:08;;;;;;;40.00;22.20;;;;;;;0.64;88.65;97482.22;4938558;28;45590;-74
2021/01/05 01:32:33;;;;;;;39.60;21.75;;;;;;;0.63;88.66;97479.75;4922586;28;46849;-74
2021/01/05 01:34:59;;;;;;;43.00;22.85;;;;;;;0.62;88.69;97481.50;4939803;28;45481;-74
2021/01/05 01:37:24;;;;;;;45.60;23.85;;;;;;;0.29;90.45;97477.78;4939764;28;45360;-75
2021/01/05 01:39:49;;;;;;;42.38;22.40;;;;;;;0.55;88.98;97477.66;4942739;28;45713;-74
2021/01/05 01:42:18;;;;;;;41.28;22.15;;;;;;;0.65;88.53;97476.03;4939495;28;45335;-74
2021/01/05 01:44:45;;;;;;;39.70;21.42;;;;;;;0.70;88.30;97478.34;4939694;28;45311;-74
2021/01/05 01:47:12;;;;;;;40.25;22.17;;;;;;;0.68;88.63;97475.81;4939891;28;45368;-74
2021/01/05 01:49:38;;;;;;;38.42;21.13;;;;;;;0.50;88.35;97477.16;4939450;28;45505;-75
2021/01/05 01:52:08;;;;;;;40.33;20.80;;;;;;;0.08;90.74;97474.91;4939172;28;46099;-74
2021/01/05 01:54:55;;;;;;;37.45;20.13;;;;;;;0.38;90.44;97471.88;4922215;28;45218;-74
2021/01/05 01:57:38;;;;;;;35.08;19.35;;;;;;;0.62;89.84;97471.03;4939686;28;45424;-75
2021/01/05 02:00:09;;;;;;;37.45;20.33;;;;;;;0.69;89.20;97474.06;4937465;28;45252;-75
2021/01/05 02:02:53;;;;;;;;;;;;;;;0.75;89.10;97475.38;4922496;28;47102;-74
2021/01/05 02:05:32;;;;;;;43.08;21.80;;;;;;;0.76;88.75;97475.28;4939429;28;45364;-74
2021/01/05 02:08:12;;;;;;;38.97;21.27;;;;;;;0.77;89.36;97481.31;4927892;28;45269;-73
2021/01/05 02:11:02;;;;;;;39.33;21.33;;;;;;;0.40;89.38;97471.75;4939463;28;45546;-75
2021/01/05 02:13:50;;;;;;;40.20;21.23;;;;;;;0.45;90.62;97479.28;4939396;28;45220;-74
2021/01/05 02:16:23;;;;;;;39.03;21.98;;;;;;;0.71;89.75;97477.38;4929449;28;45332;-74
2021/01/05 02:18:52;;;;;;;39.40;22.00;;;;;;;0.80;88.46;97473.25;4939196;28;45302;-74
2021/01/05 02:21:35;;;;;;;40.00;21.50;;;;;;;0.79;88.68;97472.44;4939297;28;45522;-75
2021/01/05 02:24:06;;;;;;;37.85;19.88;;;;;;;0.64;89.91;97468.31;4925217;28;47902;-74
2021/01/05 02:27:01;;;;;;;36.00;20.17;;;;;;;0.71;89.58;97462.50;4939065;28;45233;-75
2021/01/05 02:29:32;;;;;;;37.75;20.42;;;;;;;0.70;89.58;97462.63;4930330;28;45233;-74
2021/01/05 02:32:40;;;;;;;37.85;21.27;;;;;;;0.72;89.12;97460.75;4939130;28;45267;-74
2021/01/05 02:35:20;;;;;;;39.70;20.98;;;;;;;0.70;88.77;97467.88;4938810;28;46252;-74
2021/01/05 02:38:11;;;;;;;41.72;21.73;;;;;;;0.75;88.35;97457.03;4937120;28;45770;-74
2021/01/05 02:41:13;;;;;;;40.35;21.30;;;;;;;0.30;87.99;97450.69;4939407;28;45237;-75
2021/01/05 02:43:53;;;;;;;43.65;22.70;;;;;;;0.67;88.50;97460.25;4939604;28;45607;-75
2021/01/05 02:46:19;;;;;;;43.70;21.35;;;;;;;0.64;89.11;97452.63;4950664;28;46687;-74
2021/01/05 02:49:10;;;;;;;43.92;24.00;;;;;;;0.67;87.86;97455.00;4938433;28;45271;-75
2021/01/05 02:51:51;;;;;;;44.45;23.30;;;;;;;0.69;88.05;97450.50;4928973;28;45355;-74
2021/01/05 02:54:34;;;;;;;;;;;;;;;0.67;87.36;97449.78;4935444;28;45485;-75
2021/01/05 02:57:37;;;;;;;44.08;22.98;;;;;;;0.55;88.52;97454.97;4938828;28;45458;-74
2021/01/05 03:00:22;;;;;;;46.42;22.98;;;;;;;0.60;87.59;97449.38;4938414;28;45255;-74
2021/01/05 03:03:25;;;;;;;41.50;22.33;;;;;;;0.32;89.42;97455.78;4928450;28;45170;-74
2021/01/05 03:06:28;;;;;;;38.90;21.10;;;;;;;0.33;89.25;97450.47;4938781;28;45515;-74
2021/01/05 03:09:07;;;;;;;36.53;19.77;;;;;;;0.23;89.74;97450.28;4930420;28;45387;-75
2021/01/05 03:11:47;;;;;;;39.27;19.77;;;;;;;0.25;89.97;97455.41;4921408;28;45326;-74
2021/01/05 03:14:36;;;;;;;38.03;20.80;;;;;;;0.30;90.03;97455.91;4938652;28;45507;-75
2021/01/05 03:17:17;;;;;;;41.35;20.15;;;;;;;0.05;90.43;97462.06;4937457;28;45288;-75
2021/01/05 03:20:12;;;;;;;40.85;21.42;;;;;;;-0.05;90.10;97446.19;4926067;28;46560;-74
2021/01/05 03:22:47;;;;;;;36.40;19.00;;;;;;;-0.25;91.28;97458.88;4938079;28;45316;-74
2021/01/05 03:25:15;;;;;;;39.22;20.48;;;;;;;0.10;91.32;97452.94;4938771;28;45354;-75
2021/01/05 03:27:40;;;;;;;40.65;20.13;;;;;;;0.17;90.30;97450.72;4938378;28;45430;-74
2021/01/05 03:30:11;;;;;;;39.95;20.40;;;;;;;0.06;90.75;97443.66;4937208;28;48363;-75
2021/01/05 03:32:37;;;;;;;38.50;20.88;;;;;;;0.23;90.33;97442.44;4938440;28;45409;-74
2021/01/05 03:35:03;;;;;;;37.60;19.05;;;;;;;0.33;89.33;97437.38;4935902;28;45505;-75
2021/01/05 03:37:28;;;;;;;39.17;19.17;;;;;;;0.04;89.84;97435.09;4936537;28;45612;-74
2021/01/05 03:39:54;;;;;;;37.28;19.45;;;;;;;0.08;91.11;97440.91;4938609;28;46348;-74
2021/01/05 03:42:19;;;;;;;37.05;19.92;;;;;;;0.11;89.86;97441.53;4941073;28;45329;-74
2021/01/05 03:44:44;;;;;;;40.08;20.55;;;;;;;0.07;91.34;97440.09;4942142;28;45273;-75
2021/01/05 03:47:10;;;;;;;39.50;20.02;;;;;;;-0.06;90.23;97442.75;4940254;28;45307;-75
2021/01/05 03:49:35;;;;;;;36.20;19.08;;;;;;;0.33;90.05;97436.53;4941288;28;46034;-74
2021/01/05 03:52:01;;;;;;;41.30;20.42;;;;;;;0.26;90.19;97444.00;4940966;28;45441;-75
2021/01/05 03:54:28;;;;;;;38.88;20.42;;;;;;;0.44;89.67;97439.19;4939921;28;45308;-74
2021/01/05 03:56:53;;;;;;;36.00;19.65;;;;;;;0.17;91.09;97444.66;4936514;28;45222;-74
2021/01/05 03:59:18;;;;;;;38.78;19.40;;;;;;;0.36;89.98;97446.75;4939903;28;48409;-74
2021/01/05 04:01:54;;;;;;;38.65;20.48;;;;;;;0.02;90.31;97443.97;4941243;28;45430;-74
2021/01/05 04:04:21;;;;;;;36.70;19.17;;;;;;;0.16;90.23;97443.00;4941619;28;45245;-75
2021/01/05 04:06:46;;;;;;;33.75;18.20;;;;;;;-0.04;92.53;97440.84;4940868;28;45359;-74
2021/01/05 04:09:12;;;;;;;41.70;19.52;;;;;;;-0.05;92.36;97440.94;4941310;28;45987;-74
2021/01/05 04:11:38;;;;;;;41.67;20.88;;;;;;;0.14;90.75;97450.94;4941167;28;45300;-74
2021/01/05 04:14:03;;;;;;;39.75;20.13;;;;;;;0.46;90.10;97439.09;4941089;28;45440;-74
2021/01/05 04:16:31;;;;;;;38.30;19.20;;;;;;;0.56;89.41;97438.31;4941210;28;45497;-74
2021/01/05 04:18:57;;;;;;;39.42;19.20;;;;;;;0.63;88.59;97445.72;4941173;28;45306;-74
2021/01/05 04:21:22;;;;;;;38.75;20.27;;;;;;;0.64;88.54;97447.38;4940815;28;45272;-74
2021/01/05 04:23:48;;;;;;;38.47;19.65;;;;;;;0.54;88.85;97445.44;4941259;28;45252;-75
2021/01/05 04:26:13;;;;;;;41.78;21.42;;;;;;;0.57;88.87;97441.75;4947630;28;45659;-75
2021/01/05 04:28:38;;;;;;;39.67;20.45;;;;;;;0.70;89.14;97442.50;4939491;28;46669;-74
2021/01/05 04:31:04;;;;;;;38.03;20.33;;;;;;;0.71;87.95;97443.38;4940653;28;45489;-74
2021/01/05 04:33:29;;;;;;;40.35;20.83;;;;;;;0.73;88.15;97442.28;4941020;28;45296;-74
2021/01/05 04:35:54;;;;;;;37.28;20.50;;;;;;;0.07;90.00;97442.72;4940866;28;45312;-74
2021/01/05 04:38:20;;;;;;;43.25;21.10;;;;;;;-0.28;92.79;97447.81;4939292;28;47704;-75
2021/01/05 04:40:47;;;;;;;38.28;21.02;;;;;;;0.15;90.23;97442.16;4940652;28;45291;-74
2021/01/05 04:43:34;;;;;;;42.03;20.55;;;;;;;0.53;88.03;97435.06;4940946;28;45330;-74
2021/01/05 04:46:15;;;;;;;39.10;20.33;;;;;;;0.58;87.59;97440.81;4927165;28;45367;-75
2021/01/05 04:48:52;;;;;;;36.90;19.45;;;;;;;0.63;87.89;97436.06;4940397;28;45662;-74
2021/01/05 04:51:26;;;;;;;35.70;19.35;;;;;;;0.54;88.30;97453.28;4940426;28;45434;-74
2021/01/05 04:54:20;;;;;;;40.35;20.13;;;;;;;0.73;88.11;97441.47;4938046;28;45282;-74
2021/01/05 04:57:17;;;;;;;34.45;18.88;;;;;;;0.76;88.63;97437.78;4940034;28;45567;-74
2021/01/05 04:59:54;;;;;;;38.40;19.33;;;;;;;0.78;88.19;97423.63;4940347;28;46596;-75
2021/01/05 05:02:29;;;;;;;40.78;21.17;;;;;;;0.79;87.74;97435.78;4929418;28;45274;-75
2021/01/05 05:05:01;;;;;;;37.50;19.40;;;;;;;0.68;87.74;97425.28;4940147;28;45416;-74
2021/01/05 05:07:55;;;;;;;40.22;20.90;;;;;;;0.49;89.32;97428.41;4938662;28;45450;-75
2021/01/05 05:10:53;;;;;;;38.83;20.83;;;;;;;0.61;87.92;97421.44;4928555;28;46036;-74
2021/01/05 05:13:39;;;;;;;37.53;20.83;;;;;;;0.52;88.81;97430.78;4921229;28;45341;-74
2021/01/05 05:16:33;;;;;;;43.20;21.00;;;;;;;0.26;89.66;97434.34;4939869;28;45274;-74
2021/01/05 05:19:21;;;;;;;44.85;22.20;;;;;;;0.58;88.31;97432.97;4940365;28;45323;-74
2021/01/05 05:21:58;;;;;;;41.40;21.80;;;;;;;0.10;90.61;97439.03;4927980;28;48641;-74
2021/01/05 05:24:46;;;;;;;39.60;20.58;;;;;;;-0.08;91.79;97436.78;4940065;28;45232;-74
2021/01/05 05:27:30;;;;;;;41.95;20.90;;;;;;;0.37;89.69;97435.34;4940188;28;45275;-74
2021/01/05 05:30:01;;;;;;;40.13;21.25;;;;;;;0.48;89.81;97438.06;4928842;28;45424;-74
2021/01/05 05:32:39;;;;;;;41.40;21.17;;;;;;;0.43;89.93;97440.13;4939845;28;46210;-74
2021/01/05 05:35:04;;;;;;;41.40;21.13;;;;;;;-0.10;92.74;97443.06;4939930;28;45461;-74
2021/01/05 05:37:48;;;;;;;42.50;21.38;;;;;;;-0.02;93.12;97443.34;4939682;28;45311;-75
2021/01/05 05:40:23;;;;;;;37.70;20.58;;;;;;;0.34;90.86;97439.03;4922630;28;45604;-74
2021/01/05 05:43:05;;;;;;;42.53;21.92;;;;;;;0.55;89.51;97448.88;4942304;28;47309;-74
2021/01/05 05:45:50;;;;;;;43.95;23.25;;;;;;;0.61;89.00;97452.84;4939716;28;45343;-74
2021/01/05 05:48:36;;;;;;;38.72;20.92;;;;;;;0.59;89.87;97455.56;4939910;28;45285;-74
2021/01/05 05:51:19;;;;;;;38.88;21.33;;;;;;;0.64;89.47;97461.28;4929927;28;45249;-74
2021/01/05 05:53:50;;;;;;;37.78;21.10;;;;;;;0.14;92.25;97459.63;4939252;28;45332;-74
2021/01/05 05:56:18;;;;;;;41.92;21.13;;;;;;;0.36;91.34;97449.38;4939824;28;45344;-74
2021/01/05 05:58:54;;;;;;;42.95;20.90;;;;;;;-0.20;93.46;97461.19;4938239;28;45427;-74
2021/01/05 06:01:27;;;;;;;44.30;23.38;;;;;;;-0.31;94.73;97456.69;4939601;28;45572;-75
2021/01/05 06:03:56;;;;;;;44.30;21.48;;;;;;;-0.17;94.44;97451.34;4936311;28;45510;-74
2021/01/05 06:06:23;;;;;;;40.33;22.05;;;;;;;-0.13;93.80;97454.56;4912594;28;45304;-74
2021/01/05 06:08:48;;;;;;;40.28;21.25;;;;;;;0.05;94.17;97449.84;4936035;28;45231;-74
2021/01/05 06:11:13;;;;;;;40.88;21.90;;;;;;;0.14;93.06;97450.94;4939104;28;45211;-75
2021/01/05 06:13:39;;;;;;;38.17;21.02;;;;;;;0.02;92.92;97446.59;4943529;28;46728;-75
2021/01/05 06:16:05;;;;;;;41.65;21.48;;;;;;;-0.21;93.97;97454.28;4940742;28;45487;-76
2021/01/05 06:18:30;;;;;;;42.67;22.08;;;;;;;-0.31;95.03;97460.16;4937361;28;45350;-76
2021/01/05 06:20:55;;;;;;;41.80;21.27;;;;;;;-0.35;95.58;97455.25;4935982;28;45536;-77
2021/01/05 06:23:21;;;;;;;39.80;20.92;;;;;;;-0.35;95.64;97460.47;4938226;28;45548;-74
2021/01/05 06:25:47;;;;;;;40.58;21.98;;;;;;;0.01;94.18;97463.22;4937796;28;45557;-75
2021/01/05 06:28:13;;;;;;;37.03;19.38;;;;;;;0.21;92.40;97462.63;4938201;28;45567;-77
2021/01/05 06:30:39;;;;;;;38.35;20.73;;;;;;;-0.18;93.74;97467.94;4938527;28;45558;-76
2021/01/05 06:33:04;;;;;;;42.70;21.80;;;;;;;-0.28;95.83;97474.78;4935626;28;47631;-76
2021/01/05 06:35:30;;;;;;;38.58;20.88;;;;;;;-0.33;96.41;97472.50;4938747;28;45339;-80
2021/01/05 06:37:55;;;;;;;38.55;22.02;;;;;;;-0.39;95.95;97479.91;4937180;28;45439;-77
2021/01/05 06:40:25;;;;;;;47.33;24.73;;;;;;;-0.27;95.68;97483.47;4938181;28;45537;-77
2021/01/05 06:42:50;;;;;;;48.58;24.70;;;;;;;-0.39;95.38;97480.75;4935624;28;48550;-76
2021/01/05 06:45:25;;;;;;;45.25;23.83;;;;;;;-0.36;94.07;97488.38;4938429;28;45366;-76
2021/01/05 06:47:52;;;;;;;48.47;23.95;;;;;;;-0.07;94.08;97477.66;4938510;28;45508;-76
2021/01/05 06:50:18;;;;;;;45.80;23.95;;;;;;;0.06;92.95;97476.78;4937686;28;45526;-76
2021/01/05 06:52:43;;;;;;;40.20;21.95;;;;;;;0.13;93.03;97480.66;4936370;28;45410;-76
2021/01/05 06:55:10;;;;;;;43.13;21.95;;;;;;;0.34;92.04;97482.66;4936691;28;45820;-76
2021/01/05 06:57:35;;;;;;;43.83;23.30;;;;;;;0.27;92.17;97480.50;4938362;28;45320;-76
2021/01/05 07:00:01;;;;;;;47.65;24.52;;;;;;;0.28;92.46;97479.53;4937772;28;45311;-76
2021/01/05 07:02:26;;;;;;;49.20;25.13;;;;;;;0.21;92.16;97486.16;4937857;28;45383;-76
2021/01/05 07:04:52;;;;;;;45.15;23.15;;;;;;;-0.17;93.73;97479.25;4937412;28;45576;-78
2021/01/05 07:07:17;;;;;;;45.20;22.55;;;;;;;-0.21;95.57;97483.03;4936565;28;45360;-77
2021/01/05 07:09:43;;;;;;;47.38;23.85;;;;;;;-0.21;95.32;97490.88;4938058;28;45383;-77
2021/01/05 07:12:09;;;;;;;42.97;22.95;;;;;;;-0.17;95.23;97492.31;4936309;28;47281;-75
2021/01/05 07:14:34;;;;;;;43.17;23.17;;;;;;;0.18;93.51;97496.03;4935717;28;45462;-77
2021/01/05 07:17:00;;;;;;;42.88;23.27;;;;;;;-0.01;93.54;97497.31;4945038;28;45604;-76
2021/01/05 07:19:25;;;;;;;49.03;23.88;;;;;;;-0.24;95.24;97499.75;4924218;28;45437;-76
2021/01/05 07:21:51;;;;;;;42.50;22.55;;;;;;;0.10;94.38;97499.16;4939881;28;48314;-76
2021/01/05 07:24:17;;;;;;;45.17;22.83;;;;;;;-0.19;95.06;97502.88;4941234;28;45348;-76
2021/01/05 07:26:48;;;;;;;46.88;23.90;;;;;;;-0.09;94.92;97508.31;4941652;28;45345;-76
2021/01/05 07:29:15;;;;;;;41.70;22.38;;;;;;;-0.09;94.98;97508.31;4941284;28;45506;-76
2021/01/05 07:31:41;;;;;;;44.22;22.42;;;;;;;-0.24;94.25;97506.78;4941490;28;45358;-76
2021/01/05 07:34:07;;;;;;;46.38;23.98;;;;;;;-0.19;95.93;97505.50;4941175;28;45571;-76
2021/01/05 07:36:36;;;;;;;39.50;21.65;;;;;;;0.08;95.42;97506.28;4941167;28;45437;-76
2021/01/05 07:39:12;;;;;;;44.97;23.13;;;;;;;0.26;93.27;97506.78;4941084;28;45211;-76
2021/01/05 07:41:38;;;;;;;45.30;23.60;;;;;;;0.46;92.02;97501.88;4940833;28;45613;-75
2021/01/05 07:44:03;;;;;;;44.08;23.83;;;;;;;0.40;91.49;97501.38;4937558;28;45426;-76
2021/01/05 07:46:29;;;;;;;42.28;22.67;;;;;;;-0.01;94.45;97500.75;4917404;28;45591;-76
2021/01/05 07:48:54;;;;;;;44.38;23.13;;;;;;;-0.15;94.88;97512.19;4940323;28;45924;-76
2021/01/05 07:51:19;;;;;;;46.88;22.75;;;;;;;-0.16;95.40;97513.13;4939365;28;45371;-76
2021/01/05 07:53:45;;;;;;;43.10;21.52;;;;;;;-0.20;95.48;97523.91;4939709;28;45403;-76
2021/01/05 07:56:10;;;;;;;43.92;22.27;;;;;;;-0.16;96.28;97520.97;4924024;28;45412;-75
2021/01/05 07:58:36;;;;;;;47.33;24.08;;;;;;;-0.26;95.51;97514.69;4923520;28;45367;-77
2021/01/05 08:01:01;;;;;;;46.55;23.23;;;;;;;0.08;95.30;97514.13;4936433;28;47922;-76
2021/01/05 08:03:27;;;;;;;45.33;22.80;;;;;;;-0.05;95.60;97507.16;4934102;28;45388;-76
2021/01/05 08:05:52;;;;;;;42.70;22.40;;;;;;;0.26;94.76;97506.78;4935161;28;45263;-76
2021/01/05 08:08:17;;;;;;;44.45;23.23;;;;;;;0.56;92.70;97506.34;4923782;28;45433;-76
2021/01/05 08:10:43;;;;;;;46.42;23.35;;;;;;;0.54;91.96;97515.25;4935340;28;45557;-76
2021/01/05 08:13:11;;;;;;;52.35;24.65;;;;;;;0.38;93.60;97505.03;4942135;28;45594;-77
2021/01/05 08:15:37;;;;;;;46.78;24.17;;;;;;;0.52;93.05;97511.91;4949480;28;45445;-76
2021/01/05 08:18:06;;;;;;;50.00;25.73;;;;;;;0.57;93.74;97509.78;4933983;28;45510;-75
2021/01/05 08:20:32;;;;;;;46.58;24.75;;;;;;;0.67;92.87;97509.97;4924484;28;46736;-75
2021/01/05 08:22:58;;;;;;;64.78;30.58;;;;;;;0.16;93.62;97514.44;4939313;28;45569;-76
2021/01/05 08:25:24;;;;;;;60.33;29.60;;;;;;;0.02;95.46;97515.41;4940590;28;45367;-76
2021/01/05 08:27:53;;;;;;;51.72;26.85;;;;;;;0.33;95.38;97523.69;4938624;28;45588;-76
2021/01/05 08:30:23;;;;;;;49.72;25.27;;;;;;;0.42;94.02;97509.09;4940515;28;45249;-76
2021/01/05 08:32:49;;;;;;;49.33;24.05;;;;;;;0.23;93.91;97513.03;4940282;28;45433;-76
2021/01/05 08:35:17;;;;;;;47.13;24.35;;;;;;;0.53;93.86;97514.44;4940571;28;45352;-76
2021/01/05 08:37:43;;;;;;;48.55;24.15;;;;;;;0.75;92.63;97520.72;4922826;28;45271;-76
2021/01/05 08:40:12;;;;;;;46.17;24.70;;;;;;;0.53;92.94;97511.81;4938842;28;47332;-76
2021/01/05 08:42:38;;;;;;;44.50;22.55;;;;;;;0.68;92.51;97512.47;4940073;28;45317;-76
2021/01/05 08:45:05;;;;;;;50.42;23.27;;;;;;;0.83;91.24;97509.66;4939093;28;45804;-75
2021/01/05 08:47:31;;;;;;;47.90;23.48;;;;;;;0.27;93.12;97511.88;4940090;28;45323;-75
2021/01/05 08:49:56;;;;;;;52.03;24.45;;;;;;;0.33;94.76;97512.38;4938595;28;46976;-76
2021/01/05 08:52:22;;;;;;;49.28;24.05;;;;;;;0.71;93.09;97514.84;4927029;28;45364;-75
2021/01/05 08:54:47;;;;;;;46.42;23.77;;;;;;;0.85;92.60;97505.16;4939956;28;45441;-76
2021/01/05 08:57:14;;;;;;;53.45;28.00;;;;;;;0.87;92.33;97511.97;4940077;28;45419;-75
2021/01/05 08:59:46;;;;;;;52.88;26.23;;;;;;;1.02;91.41;97519.63;4939826;28;46072;-76
2021/01/05 09:02:11;;;;;;;58.88;28.95;;;;;;;0.84;92.40;97517.41;4939813;28;45351;-76
2021/01/05 09:04:37;;;;;;;49.33;26.42;;;;;;;1.04;90.67;97517.72;4940218;28;45256;-75
2021/01/05 09:07:03;;;;;;;50.95;26.63;;;;;;;1.06;91.26;97523.69;4939589;28;45292;-75
2021/01/05 09:09:29;;;;;;;51.45;26.83;;;;;;;0.77;92.45;97520.59;4938554;28;47012;-76
2021/01/05 09:11:57;;;;;;;48.67;26.23;;;;;;;0.96;91.39;97520.94;4939494;28;45235;-75
2021/01/05 09:14:24;;;;;;;53.28;26.45;;;;;;;1.04;91.26;97530.00;4922545;28;45483;-75
2021/01/05 09:17:00;;;;;;;50.08;26.02;;;;;;;1.11;90.86;97518.13;4938468;28;45564;-75
2021/01/05 09:19:29;;;;;;;51.45;26.08;;;;;;;1.12;90.70;97525.84;4939748;28;45454;-75
2021/01/05 09:21:55;;;;;;;48.65;24.85;;;;;;;1.20;90.08;97520.06;4939447;28;45301;-76
2021/01/05 09:24:21;;;;;;;50.42;23.92;;;;;;;1.26;90.20;97531.84;4938558;28;45403;-76
2021/01/05 09:26:56;;;;;;;47.08;24.80;;;;;;;1.27;90.11;97530.88;4937982;28;45564;-76
2021/01/05 09:29:23;;;;;;;52.58;26.45;;;;;;;1.30;89.52;97535.91;4939540;28;45577;-76
2021/01/05 09:31:51;;;;;;;48.63;25.35;;;;;;;1.34;89.18;97532.13;4922217;28;45542;-76
2021/01/05 09:34:19;;;;;;;52.85;26.15;;;;;;;1.17;90.62;97530.75;4939701;28;45358;-76
2021/01/05 09:36:44;;;;;;;52.55;26.10;;;;;;;1.26;89.84;97535.31;4939116;28;45706;-76
2021/01/05 09:39:14;;;;;;;49.00;25.08;;;;;;;1.29;90.13;97531.59;4938698;28;46192;-77
2021/01/05 09:41:48;;;;;;;46.63;24.73;;;;;;;1.30;89.24;97530.66;4939150;28;45406;-76
2021/01/05 09:44:14;;;;;;;46.42;23.70;;;;;;;1.34;89.88;97540.00;4939453;28;45466;-76
2021/01/05 09:46:41;;;;;;;50.83;25.95;;;;;;;1.13;90.55;97543.22;4939391;28;45351;-76
2021/01/05 09:49:14;;;;;;;48.38;25.63;;;;;;;1.28;90.75;97535.19;4921740;28;48122;-77
2021/01/05 09:51:39;;;;;;;53.35;26.70;;;;;;;1.37;89.87;97538.91;4921757;28;45393;-77
2021/01/05 09:54:06;;;;;;;50.53;25.95;;;;;;;1.42;89.54;97532.38;4937888;28;45505;-77
2021/01/05 09:56:31;;;;;;;55.33;26.42;;;;;;;1.21;89.42;97531.34;4939071;28;45645;-77
2021/01/05 09:58:57;;;;;;;53.17;26.23;;;;;;;1.50;88.69;97537.03;4938928;28;46106;-77
2021/01/05 10:01:32;;;;;;;50.17;26.13;;;;;;;1.62;87.88;97532.66;4938920;28;45403;-77
2021/01/05 10:03:58;;;;;;;51.40;26.58;;;;;;;1.48;87.08;97543.34;4939142;28;45375;-76
2021/01/05 10:06:32;;;;;;;48.67;26.00;;;;;;;1.32;89.02;97544.47;4921404;28;45518;-77
2021/01/05 10:08:58;;;;;;;52.80;26.98;;;;;;;1.47;88.47;97541.69;4938929;28;45277;-77
2021/01/05 10:11:30;;;;;;;49.85;24.73;;;;;;;1.57;88.33;97538.22;4938830;28;45390;-76
2021/01/05 10:13:55;;;;;;;52.15;28.20;;;;;;;1.65;88.16;97531.56;4938935;28;45316;-77
2021/01/05 10:16:21;;;;;;;51.53;26.40;;;;;;;1.68;87.93;97528.69;4937752;28;45264;-76
2021/01/05 10:18:46;;;;;;;53.17;26.38;;;;;;;1.51;88.24;97527.38;4938825;28;46216;-76
2021/01/05 10:21:11;;;;;;;50.38;25.25;;;;;;;1.24;88.68;97534.59;4937324;28;45616;-76
2021/01/05 10:23:37;;;;;;;51.55;26.05;;;;;;;1.18;89.68;97527.19;4938965;28;45240;-76
2021/01/05 10:26:03;;;;;;;48.50;25.48;;;;;;;1.36;88.70;97532.84;4938685;28;45522;-76
2021/01/05 10:28:28;;;;;;;47.53;26.40;;;;;;;1.49;88.33;97535.34;4957254;28;48572;-77
2021/01/05 10:30:53;;;;;;;51.92;26.75;;;;;;;1.47;88.05;97526.78;4947595;28;45312;-76
2021/01/05 10:33:19;;;;;;;54.92;27.25;;;;;;;1.55;88.66;97524.41;4938598;28;45320;-76
2021/01/05 10:35:44;;;;;;;52.70;27.05;;;;;;;1.66;87.54;97526.22;4938775;28;45630;-77
2021/01/05 10:38:10;;;;;;;52.05;25.95;;;;;;;1.80;86.75;97524.31;4938245;28;45440;-77
2021/01/05 10:40:35;;;;;;;48.72;25.98;;;;;;;1.79;85.60;97523.50;4938711;28;45972;-76
2021/01/05 10:43:01;;;;;;;48.47;24.92;;;;;;;1.54;87.37;97519.28;4937081;28;45352;-77
2021/01/05 10:45:27;;;;;;;53.92;27.42;;;;;;;1.42;88.39;97510.56;4937313;28;45486;-76
2021/01/05 10:47:52;;;;;;;49.85;26.65;;;;;;;1.70;86.16;97511.06;4938191;28;46081;-76
2021/01/05 10:50:21;;;;;;;52.47;26.98;;;;;;;1.79;85.43;97507.75;4940091;28;45414;-76
2021/01/05 10:52:49;;;;;;;52.60;27.52;;;;;;;1.85;85.95;97503.81;4940182;28;45398;-77
2021/01/05 10:55:16;;;;;;;58.53;27.70;;;;;;;1.69;86.31;97502.38;4942033;28;45521;-77
2021/01/05 10:57:42;;;;;;;50.33;25.95;;;;;;;1.83;85.32;97503.09;4941586;28;45469;-77
2021/01/05 11:00:09;;;;;;;54.45;28.50;;;;;;;1.42;88.49;97506.19;4941610;28;45557;-77
2021/01/05 11:02:34;;;;;;;53.97;27.38;;;;;;;1.47;87.12;97495.31;4941811;28;45330;-76
2021/01/05 11:05:00;;;;;;;53.20;27.42;;;;;;;1.59;87.36;97493.56;4940665;28;45579;-77
2021/01/05 11:07:25;;;;;;;54.03;27.48;;;;;;;1.89;85.64;97492.97;4941162;28;45740;-77
2021/01/05 11:09:51;;;;;;;50.08;27.30;;;;;;;2.01;84.58;97491.16;4941974;28;45342;-77
2021/01/05 11:12:27;;;;;;;51.63;26.15;;;;;;;2.07;83.73;97479.38;4939988;28;45394;-78
2021/01/05 11:14:53;;;;;;;48.13;25.15;;;;;;;1.87;84.95;97486.19;4941710;28;45430;-77
2021/01/05 11:17:18;;;;;;;50.85;25.13;;;;;;;2.14;84.00;97485.81;4941406;28;46075;-76
2021/01/05 11:19:45;;;;;;;54.30;26.42;;;;;;;2.00;83.95;97486.06;4941704;28;45291;-76
2021/01/05 11:22:14;;;;;;;49.00;26.05;;;;;;;2.06;84.43;97482.09;4939969;28;45242;-77
2021/01/05 11:24:40;;;;;;;49.47;25.45;;;;;;;1.54;86.50;97487.84;4941475;28;45421;-77
2021/01/05 11:27:07;;;;;;;52.72;27.17;;;;;;;1.91;85.81;97489.41;4941043;28;45393;-77
2021/01/05 11:29:33;;;;;;;48.47;25.33;;;;;;;1.59;85.05;97483.91;4924023;28;45930;-77
2021/01/05 11:32:06;;;;;;;48.28;24.45;;;;;;;1.53;85.09;97486.16;4941606;28;45245;-77
2021/01/05 11:34:32;;;;;;;51.67;25.42;;;;;;;1.51;85.83;97480.22;4941330;28;45219;-76
2021/01/05 11:37:06;;;;;;;47.55;25.40;;;;;;;1.84;84.11;97474.16;4939643;28;47702;-76
2021/01/05 11:39:32;;;;;;;45.17;24.83;;;;;;;2.04;82.93;97464.69;4941234;28;45308;-77